This is the latest recevied weather packets stored in our database for station/object OH1KK. If no packets are shown the sender has not sent any weather packets the latest 10 day(s).
| Time | Temp. | Humidity | Pressure | Rain* | Wind** | Luminosity | Snow |
|---|---|---|---|---|---|---|---|
| 1777878294 | 8.33° C | 42% | 996 hPa | 0 mm | - | - | - |
| 1777877379 | 7.78° C | 43% | 996.1 hPa | 0 mm | - | - | - |
| 1777876464 | 7.22° C | 45% | 996.4 hPa | 0 mm | - | - | - |
| 1777875549 | 6.67° C | 48% | 996.6 hPa | 0 mm | - | - | - |
| 1777874695 | 6.67° C | 48% | 997 hPa | 0 mm | - | - | - |
| 1777873780 | 6.11° C | 52% | 997.1 hPa | 0 mm | - | - | - |
| 1777871096 | 2.78° C | 64% | 997.7 hPa | 0 mm | - | - | - |
| 1777870180 | 2.22° C | 69% | 998.1 hPa | 0 mm | - | - | - |
| 1777868349 | 0.56° C | 71% | 998.1 hPa | 0 mm | - | - | - |
| 1777867495 | 0° C | 73% | 998.3 hPa | 0 mm | - | - | - |
| 1777866580 | -0.56° C | 74% | 998.4 hPa | 0 mm | - | - | - |
| 1777865665 | -0.56° C | 74% | 998.6 hPa | 0 mm | - | - | - |
| 1777864750 | -1.11° C | 78% | 998.8 hPa | 0 mm | - | - | - |
| 1777863896 | -1.67° C | 80% | 998.7 hPa | 0 mm | - | - | - |
| 1777862066 | -2.22° C | 81% | 998.9 hPa | 0 mm | - | - | - |
| 1777861151 | -2.22° C | 82% | 999 hPa | 0 mm | - | - | - |
| 1777860297 | -2.22° C | 81% | 999 hPa | 0 mm | - | - | - |
| 1777859383 | -2.78° C | 83% | 999.1 hPa | 0 mm | - | - | - |
| 1777858468 | -3.33° C | 86% | 999.2 hPa | 0 mm | - | - | - |
| 1777857552 | -3.33° C | 86% | 999.4 hPa | 0 mm | - | - | - |
| 1777856698 | -3.33° C | 85% | 999.3 hPa | 0 mm | - | - | - |
| 1777855783 | -2.78° C | 83% | 999.4 hPa | 0 mm | - | - | - |
| 1777854868 | -2.78° C | 82% | 999.5 hPa | 0 mm | - | - | - |
| 1777853953 | -2.78° C | 83% | 999.7 hPa | 0 mm | - | - | - |
| 1777853099 | -2.78° C | 82% | 999.8 hPa | 0 mm | - | - | - |
* Rain latest hour (hover to see other rain measurements)
** Current wind speed in m/s (hover to see current wind gust speed)